Terminal Aerodrome Forecast
Issued by NWS

Home | Current Version | Previous Version | Text Only | Print | Product List | Glossary On
Versions: 1 2 3 4 5 6 7 8 9 10 11 12 13 14 15 16 17 18 19 20 21 22 23 24 25 26 27 28 29 30 31 32 33
000
FTAK31 PANC 211748 AAA
TAFAEN
TAF AMD
PAEN 211748Z 2118/2218 03011KT P6SM VCSH SCT045 BKN070
      TEMPO 2118/2120 BKN008
     FM220100 03013KT P6SM SCT070=

USA.gov is the U.S. government's official web portal to all federal, state and local government web resources and services.